Time;durP1;ratioP1;P1;durP2;ratioP2;P2;SDS_P1;SDS_P2;PMS_P1;PMS_P2;Temp;Humidity;BMP_temperature;BMP_pressure;BME280_temperature;BME280_humidity;BME280_pressure;Samples;Min_cycle;Max_cycle;Signal;HPM_P1;HPM_P2
2023/07/28 00:01:00;;;;;;;5.30;5.00;;;;;;;17.08;100.00;100201.81;6169102;23;20632;-69
2023/07/28 00:03:27;;;;;;;5.20;5.00;;;;;;;16.92;100.00;100178.44;6148121;23;20464;-69
2023/07/28 00:05:56;;;;;;;5.47;5.18;;;;;;;17.07;100.00;100210.72;6173584;23;20115;-69
2023/07/28 00:08:24;;;;;;;5.15;4.93;;;;;;;17.12;100.00;100206.69;6142768;23;20021;-69
2023/07/28 00:10:51;;;;;;;5.10;4.90;;;;;;;16.79;100.00;100162.72;6167089;23;20396;-69
2023/07/28 00:13:17;;;;;;;5.20;5.00;;;;;;;17.13;100.00;100202.22;6176492;23;20105;-69
2023/07/28 00:15:44;;;;;;;5.43;4.90;;;;;;;17.18;100.00;100201.81;6164178;23;20019;-69
2023/07/28 00:18:10;;;;;;;5.38;5.07;;;;;;;16.88;100.00;100159.31;6170216;23;20037;-69
2023/07/28 00:20:36;;;;;;;5.22;5.00;;;;;;;17.11;100.00;100202.34;6141245;23;20400;-68
2023/07/28 00:23:03;;;;;;;5.10;4.90;;;;;;;16.66;100.00;100125.88;6196070;23;20087;-69
2023/07/28 00:25:29;;;;;;;5.18;4.95;;;;;;;16.93;100.00;100167.69;6170152;23;20264;-69
2023/07/28 00:27:56;;;;;;;5.45;5.15;;;;;;;16.73;100.00;100123.50;6167629;23;20050;-69
2023/07/28 00:30:23;;;;;;;5.10;4.90;;;;;;;17.20;100.00;100195.44;6147992;23;20017;-70
2023/07/28 00:32:49;;;;;;;4.95;4.75;;;;;;;17.05;100.00;100178.19;6148113;23;20097;-69
2023/07/28 00:35:16;;;;;;;5.50;5.20;;;;;;;17.15;100.00;100193.16;6170432;23;20016;-69
2023/07/28 00:37:45;;;;;;;5.40;5.10;;;;;;;17.14;100.00;100191.50;6149993;23;21124;-69
2023/07/28 00:40:12;;;;;;;5.32;5.03;;;;;;;17.18;100.00;100194.72;6172830;23;20004;-72
2023/07/28 00:42:38;;;;;;;5.70;5.30;;;;;;;17.20;100.00;100202.50;6155480;23;20080;-69
2023/07/28 00:45:05;;;;;;;5.18;4.97;;;;;;;17.18;100.00;100202.69;6168531;23;20023;-69
2023/07/28 00:47:32;;;;;;;5.32;5.03;;;;;;;17.03;100.00;100175.69;6149338;23;20024;-69
2023/07/28 00:50:01;;;;;;;5.72;5.22;;;;;;;17.11;100.00;100177.66;6146539;23;20033;-70
2023/07/28 00:52:27;;;;;;;4.90;4.70;;;;;;;17.17;100.00;100195.69;6171921;23;20087;-69
2023/07/28 00:54:54;;;;;;;5.07;4.88;;;;;;;17.11;100.00;100183.78;6173526;23;20040;-69
2023/07/28 00:57:21;;;;;;;5.38;5.07;;;;;;;17.18;100.00;100204.47;6163905;23;20029;-69
2023/07/28 00:59:47;;;;;;;5.47;5.00;;;;;;;16.17;100.00;100026.00;6147207;23;20029;-69
2023/07/28 01:02:17;;;;;;;8.43;4.85;;;;;;;17.22;100.00;100189.97;6170113;23;20031;-69
2023/07/28 01:04:44;;;;;;;5.50;5.10;;;;;;;17.03;100.00;100172.19;6144463;23;20035;-70
2023/07/28 01:07:22;;;;;;;5.50;5.00;;;;;;;17.15;100.00;100189.66;6171285;23;20658;-69
2023/07/28 01:10:14;;;;;;;4.95;4.70;;;;;;;17.09;100.00;100191.03;6173394;23;20009;-69
2023/07/28 01:12:41;;;;;;;5.03;4.82;;;;;;;17.05;100.00;100197.59;6135015;23;20092;-70
2023/07/28 01:15:07;;;;;;;5.20;5.00;;;;;;;17.13;100.00;100208.38;6172240;23;20096;-69
2023/07/28 01:17:34;;;;;;;5.40;5.10;;;;;;;17.13;100.00;100205.72;6146442;23;20031;-70
2023/07/28 01:20:03;;;;;;;5.40;5.10;;;;;;;17.12;100.00;100205.88;6173801;23;20024;-69
2023/07/28 01:22:54;;;;;;;5.15;4.82;;;;;;;17.11;100.00;100215.59;6154506;23;20109;-69
2023/07/28 01:25:39;;;;;;;5.30;5.00;;;;;;;17.14;100.00;100211.88;6144234;23;20028;-70
2023/07/28 01:28:07;;;;;;;5.72;5.38;;;;;;;17.10;100.00;100211.28;6170967;23;20024;-69
2023/07/28 01:30:33;;;;;;;5.28;4.97;;;;;;;17.08;100.00;100215.91;6145963;23;20017;-69
2023/07/28 01:33:00;;;;;;;5.90;5.60;;;;;;;17.09;100.00;100209.59;6169281;23;20080;-69
2023/07/28 01:35:26;;;;;;;5.30;5.00;;;;;;;17.08;100.00;100207.13;6166813;23;20085;-70
2023/07/28 01:37:53;;;;;;;5.45;5.15;;;;;;;17.06;100.00;100216.97;6144631;23;20140;-69
2023/07/28 01:40:20;;;;;;;5.25;5.05;;;;;;;17.06;100.00;100219.63;6167511;23;20085;-69
2023/07/28 01:42:46;;;;;;;5.53;5.15;;;;;;;17.04;100.00;100219.78;6171144;23;20013;-70
2023/07/28 01:45:13;;;;;;;5.25;4.95;;;;;;;16.82;100.00;100186.34;6172411;23;20258;-69
2023/07/28 01:47:39;;;;;;;5.50;5.20;;;;;;;16.49;100.00;100137.06;6153576;23;20021;-69
2023/07/28 01:50:06;;;;;;;5.57;5.28;;;;;;;17.02;100.00;100228.81;6169406;23;20069;-70
2023/07/28 01:52:32;;;;;;;6.00;5.60;;;;;;;17.04;100.00;100230.41;6173728;23;20541;-70
2023/07/28 01:54:59;;;;;;;6.85;5.50;;;;;;;16.72;100.00;100186.28;6146532;23;20021;-69
2023/07/28 01:57:27;;;;;;;5.70;5.30;;;;;;;17.00;100.00;100230.78;6172999;23;20017;-69
2023/07/28 01:59:54;;;;;;;6.20;5.80;;;;;;;16.89;100.00;100210.50;6169219;23;20051;-69
2023/07/28 02:02:20;;;;;;;5.97;5.28;;;;;;;16.18;100.00;100089.41;6171533;23;20029;-70
2023/07/28 02:04:47;;;;;;;5.60;5.30;;;;;;;16.11;100.00;100082.94;6161987;23;20036;-70
2023/07/28 02:07:13;;;;;;;5.20;5.00;;;;;;;16.96;100.00;100219.63;6142371;23;20021;-70
2023/07/28 02:09:39;;;;;;;5.40;4.90;;;;;;;16.85;100.00;100209.94;6171506;23;20032;-70
2023/07/28 02:12:06;;;;;;;5.18;4.88;;;;;;;16.13;100.00;100095.06;6170792;23;20035;-71
2023/07/28 02:14:33;;;;;;;5.85;5.53;;;;;;;16.93;100.00;100223.34;6142869;23;20024;-71
2023/07/28 02:16:59;;;;;;;5.38;5.03;;;;;;;16.94;100.00;100250.72;6151699;23;20087;-73
2023/07/28 02:19:26;;;;;;;5.40;4.90;;;;;;;16.91;100.00;100229.75;6177578;23;20031;-73
2023/07/28 02:21:53;;;;;;;5.63;5.30;;;;;;;16.69;100.00;100213.03;6144122;23;20686;-71
2023/07/28 02:24:19;;;;;;;5.45;5.15;;;;;;;16.61;100.00;100194.28;6178576;23;20016;-70
2023/07/28 02:26:45;;;;;;;5.43;5.13;;;;;;;16.89;100.00;100242.31;6170509;22;20075;-71
2023/07/28 02:29:12;;;;;;;5.20;4.95;;;;;;;16.91;100.00;100248.31;6145500;23;20474;-70
2023/07/28 02:31:38;;;;;;;5.40;5.10;;;;;;;16.74;100.00;100224.09;6153961;23;20033;-70
2023/07/28 02:34:05;;;;;;;5.10;4.90;;;;;;;16.92;100.00;100268.56;6173697;23;20044;-70
2023/07/28 02:36:31;;;;;;;5.50;5.20;;;;;;;16.92;100.00;100260.63;6171389;23;20027;-71
2023/07/28 02:38:58;;;;;;;5.57;5.28;;;;;;;16.29;100.00;100149.38;6147617;23;20044;-71
2023/07/28 02:41:25;;;;;;;5.50;5.10;;;;;;;16.92;100.00;100264.09;6173928;23;20108;-71
2023/07/28 02:43:51;;;;;;;5.25;4.95;;;;;;;16.81;100.00;100252.69;6161704;23;20063;-70
2023/07/28 02:46:18;;;;;;;5.15;4.85;;;;;;;16.91;100.00;100264.22;6174197;23;20057;-70
2023/07/28 02:48:44;;;;;;;5.30;5.00;;;;;;;16.85;100.00;100257.63;6177419;23;20100;-71
2023/07/28 02:51:10;;;;;;;5.40;5.10;;;;;;;16.90;100.00;100268.69;6168066;23;20020;-71
2023/07/28 02:53:37;;;;;;;5.60;5.30;;;;;;;16.90;100.00;100275.81;6146678;23;20100;-71
2023/07/28 02:56:03;;;;;;;5.80;5.50;;;;;;;16.70;100.00;100249.16;6149191;23;20025;-70
2023/07/28 02:58:30;;;;;;;6.35;5.20;;;;;;;16.90;100.00;100281.13;6147322;23;20045;-70
2023/07/28 03:00:56;;;;;;;5.18;4.97;;;;;;;16.56;100.00;100223.00;6177163;23;20047;-70
2023/07/28 03:03:22;;;;;;;5.55;5.25;;;;;;;16.92;100.00;100287.13;6172294;23;20032;-70
2023/07/28 03:05:51;;;;;;;5.57;5.28;;;;;;;16.89;100.00;100288.19;6147697;23;20013;-70
2023/07/28 03:08:18;;;;;;;5.97;5.38;;;;;;;16.70;100.00;100257.13;6175149;23;20021;-70
2023/07/28 03:10:44;;;;;;;5.60;5.25;;;;;;;16.88;100.00;100296.31;6146669;23;20439;-70
2023/07/28 03:13:10;;;;;;;5.50;5.20;;;;;;;16.88;100.00;100301.63;6184933;23;20044;-70
2023/07/28 03:15:37;;;;;;;5.50;5.20;;;;;;;16.87;100.00;100308.69;6147316;23;20044;-69
2023/07/28 03:18:03;;;;;;;5.50;5.20;;;;;;;16.47;100.00;100234.38;6175018;23;20037;-70
2023/07/28 03:20:30;;;;;;;5.65;5.35;;;;;;;16.69;100.00;100266.00;6172728;23;20099;-70
2023/07/28 03:22:56;;;;;;;5.60;5.30;;;;;;;16.91;100.00;100322.53;6167292;23;20501;-70
2023/07/28 03:25:23;;;;;;;6.07;5.68;;;;;;;16.92;100.00;100303.03;6145281;23;20023;-70
2023/07/28 03:27:49;;;;;;;5.68;5.18;;;;;;;16.02;100.00;100160.50;6195434;23;20060;-70
2023/07/28 03:30:16;;;;;;;5.50;5.20;;;;;;;16.90;100.00;100312.91;6150159;23;20082;-70
2023/07/28 03:32:42;;;;;;;5.55;5.25;;;;;;;16.85;100.00;100305.34;6172201;23;20026;-70
2023/07/28 03:35:09;;;;;;;5.80;5.32;;;;;;;16.66;100.00;100284.84;6161759;23;20028;-70
2023/07/28 03:37:35;;;;;;;5.43;5.13;;;;;;;16.90;100.00;100323.53;6150760;23;20025;-70
2023/07/28 03:40:02;;;;;;;6.05;5.65;;;;;;;16.78;100.00;100304.16;6175757;23;20360;-70
2023/07/28 03:42:28;;;;;;;5.43;4.97;;;;;;;16.52;100.00;100258.69;6147416;23;20102;-70
2023/07/28 03:44:55;;;;;;;5.07;4.78;;;;;;;16.85;100.00;100313.28;6174774;22;20480;-71
2023/07/28 03:47:21;;;;;;;5.30;5.00;;;;;;;16.71;100.00;100293.22;6152269;23;20808;-73
2023/07/28 03:49:47;;;;;;;5.63;5.28;;;;;;;16.53;100.00;100277.06;6194528;23;20016;-70
2023/07/28 03:52:14;;;;;;;5.30;5.00;;;;;;;16.95;100.00;100335.38;6174672;23;20080;-69
2023/07/28 03:54:40;;;;;;;5.35;5.05;;;;;;;16.93;100.00;100331.19;6145065;23;20555;-70
2023/07/28 03:57:09;;;;;;;5.57;5.28;;;;;;;16.98;100.00;100336.09;6161790;23;20025;-70
2023/07/28 03:59:35;;;;;;;5.30;5.03;;;;;;;16.91;100.00;100328.66;6148467;23;20032;-70
2023/07/28 04:02:02;;;;;;;4.97;4.78;;;;;;;16.83;100.00;100304.63;6176418;23;20626;-70
2023/07/28 04:04:29;;;;;;;4.90;4.70;;;;;;;17.02;100.00;100329.56;6145358;23;20100;-70
2023/07/28 04:06:55;;;;;;;7.72;4.88;;;;;;;16.52;100.00;100258.69;6175580;23;20028;-70
2023/07/28 04:09:22;;;;;;;5.07;4.88;;;;;;;17.02;100.00;100326.91;6146473;23;20087;-70
2023/07/28 04:11:48;;;;;;;5.18;4.97;;;;;;;16.89;100.00;100316.53;6172237;23;20095;-71
2023/07/28 04:14:15;;;;;;;5.72;5.35;;;;;;;17.00;100.00;100327.06;6145299;23;20031;-71
2023/07/28 04:16:41;;;;;;;4.90;4.70;;;;;;;16.24;100.00;100208.03;6170415;23;20596;-71
2023/07/28 04:19:07;;;;;;;5.40;5.10;;;;;;;16.73;100.00;100288.63;6151111;23;20088;-71
2023/07/28 04:21:34;;;;;;;5.03;4.82;;;;;;;16.88;100.00;100314.88;6175063;23;20040;-70
2023/07/28 04:24:00;;;;;;;5.45;5.15;;;;;;;16.79;100.00;100299.69;6148987;23;20036;-72
2023/07/28 04:26:27;;;;;;;4.90;4.70;;;;;;;17.07;100.00;100341.47;6167367;23;20258;-71
2023/07/28 04:28:53;;;;;;;5.05;4.85;;;;;;;17.09;100.00;100347.47;6144334;23;20091;-71
2023/07/28 04:31:20;;;;;;;5.30;5.10;;;;;;;16.78;100.00;100287.41;6171957;23;20032;-70
2023/07/28 04:33:46;;;;;;;5.20;4.95;;;;;;;16.76;100.00;100282.25;6155876;23;20265;-71
2023/07/28 04:36:13;;;;;;;5.25;4.97;;;;;;;17.12;100.00;100331.31;6175069;23;20028;-71
2023/07/28 04:38:39;;;;;;;5.22;5.00;;;;;;;17.15;100.00;100336.34;6147728;23;20025;-71
2023/07/28 04:41:05;;;;;;;5.30;5.00;;;;;;;17.18;100.00;100343.22;6167920;23;20021;-71
2023/07/28 04:43:32;;;;;;;5.00;4.80;;;;;;;17.13;100.00;100332.97;6171749;23;20063;-71
2023/07/28 04:45:58;;;;;;;12.32;5.32;;;;;;;16.71;100.00;100252.66;6172562;23;20627;-71
2023/07/28 04:48:25;;;;;;;5.50;5.20;;;;;;;17.23;100.00;100337.50;6149714;23;20467;-71
2023/07/28 04:50:51;;;;;;;5.07;4.88;;;;;;;17.26;100.00;100339.88;6171258;23;20510;-72
2023/07/28 04:53:17;;;;;;;5.35;5.15;;;;;;;17.31;100.00;100356.25;6145648;23;20024;-72
2023/07/28 04:55:44;;;;;;;4.97;4.78;;;;;;;17.28;100.00;100357.38;6172967;23;20558;-72
2023/07/28 04:58:10;;;;;;;5.00;4.80;;;;;;;17.31;100.00;100351.78;6153821;23;20707;-71
2023/07/28 05:00:39;;;;;;;5.00;4.80;;;;;;;16.79;100.00;100279.31;6169469;23;20024;-72
2023/07/28 05:03:06;;;;;;;5.18;4.88;;;;;;;17.27;100.00;100347.72;6139740;23;20028;-71
2023/07/28 05:05:32;;;;;;;10.15;5.20;;;;;;;17.37;100.00;100358.38;6171207;23;20016;-71
2023/07/28 05:07:59;;;;;;;5.30;5.00;;;;;;;17.10;100.00;100327.97;6145583;23;20159;-71
2023/07/28 05:10:25;;;;;;;5.38;5.15;;;;;;;17.04;100.00;100296.66;6168032;23;20009;-71
2023/07/28 05:12:52;;;;;;;5.20;5.00;;;;;;;17.15;100.00;100311.66;6151876;23;20013;-71
2023/07/28 05:15:18;;;;;;;5.22;5.00;;;;;;;17.26;100.00;100316.00;6173152;23;20025;-71
2023/07/28 05:17:44;;;;;;;5.25;5.05;;;;;;;17.40;100.00;100346.66;6172992;23;20078;-73
2023/07/28 05:20:11;;;;;;;5.63;5.22;;;;;;;17.26;100.00;100313.34;6171973;23;20536;-70
2023/07/28 05:22:38;;;;;;;5.20;4.90;;;;;;;17.52;100.00;100348.25;6169259;23;20081;-71
2023/07/28 05:25:05;;;;;;;5.43;5.13;;;;;;;17.53;100.00;100340.16;6190399;23;20031;-71
2023/07/28 05:27:31;;;;;;;5.40;5.15;;;;;;;17.33;100.00;100312.69;6171708;23;20048;-71
2023/07/28 05:29:58;;;;;;;5.40;5.10;;;;;;;17.76;100.00;100350.59;6140934;23;20099;-70
2023/07/28 05:32:25;;;;;;;5.10;4.90;;;;;;;17.72;100.00;100328.78;6168643;23;20032;-71
2023/07/28 05:34:51;;;;;;;5.43;5.13;;;;;;;17.54;100.00;100296.75;6139691;23;20033;-71
2023/07/28 05:37:18;;;;;;;5.18;4.97;;;;;;;17.88;100.00;100346.00;6168766;23;20374;-71
2023/07/28 05:39:45;;;;;;;6.20;5.00;;;;;;;17.93;100.00;100346.47;6172163;23;20457;-71
2023/07/28 05:42:11;;;;;;;5.78;5.47;;;;;;;17.81;100.00;100335.06;6138097;23;20021;-71
2023/07/28 05:44:37;;;;;;;5.40;5.10;;;;;;;17.77;100.00;100328.34;6173570;23;20017;-71
2023/07/28 05:47:04;;;;;;;5.15;4.95;;;;;;;17.91;100.00;100343.09;6172556;23;20025;-71
2023/07/28 05:49:31;;;;;;;5.75;5.45;;;;;;;17.88;100.00;100338.03;6151156;23;20052;-70
2023/07/28 05:51:58;;;;;;;5.80;5.45;;;;;;;17.89;100.00;100337.09;6174535;23;20052;-71
2023/07/28 05:54:24;;;;;;;5.63;5.32;;;;;;;17.86;100.00;100340.88;6152570;23;20025;-71
2023/07/28 05:56:51;;;;;;;5.53;5.22;;;;;;;17.83;100.00;100340.25;6175544;23;20077;-71
2023/07/28 05:59:17;;;;;;;5.10;4.85;;;;;;;17.54;100.00;100293.25;6146568;23;20028;-71
2023/07/28 06:01:44;;;;;;;5.47;5.18;;;;;;;17.87;100.00;100358.44;6175378;23;20027;-70
2023/07/28 06:04:11;;;;;;;5.47;5.15;;;;;;;17.86;100.00;100356.78;6156474;23;20103;-71
2023/07/28 06:06:37;;;;;;;5.75;5.35;;;;;;;17.74;100.00;100361.34;6150191;23;20063;-71
2023/07/28 06:09:03;;;;;;;5.20;5.00;;;;;;;17.45;100.00;100299.34;6195017;23;20076;-73
2023/07/28 06:11:30;;;;;;;5.72;5.38;;;;;;;17.86;100.00;100372.72;6146798;23;20109;-73
2023/07/28 06:13:57;;;;;;;5.82;5.43;;;;;;;17.71;100.00;100337.69;6177112;23;21340;-72
2023/07/28 06:16:24;;;;;;;5.85;5.40;;;;;;;17.90;100.00;100367.94;6173115;23;20412;-71
2023/07/28 06:18:51;;;;;;;5.60;5.30;;;;;;;17.78;100.00;100340.66;6176930;23;20020;-70
2023/07/28 06:21:17;;;;;;;5.55;5.25;;;;;;;17.87;100.00;100357.63;6172797;23;20028;-71
2023/07/28 06:23:44;;;;;;;5.70;5.40;;;;;;;17.71;100.00;100328.91;6177688;23;20591;-71
2023/07/28 06:26:10;;;;;;;6.07;5.70;;;;;;;17.77;100.00;100341.63;6143743;23;20004;-70
2023/07/28 06:28:38;;;;;;;5.63;5.32;;;;;;;18.04;100.00;100375.56;6175420;23;20040;-70
2023/07/28 06:31:05;;;;;;;5.70;5.40;;;;;;;18.00;100.00;100362.66;6155111;23;20027;-70
2023/07/28 06:33:32;;;;;;;6.15;5.75;;;;;;;18.13;100.00;100374.72;6175882;23;20032;-71
2023/07/28 06:35:58;;;;;;;5.80;5.40;;;;;;;18.21;100.00;100379.34;6155960;23;20631;-71
2023/07/28 06:38:24;;;;;;;5.70;5.40;;;;;;;18.14;100.00;100347.19;6172139;23;20021;-70
2023/07/28 06:40:51;;;;;;;5.38;5.13;;;;;;;18.34;100.00;100377.28;6175551;23;20041;-71
2023/07/28 06:43:19;;;;;;;5.72;5.43;;;;;;;18.44;100.00;100389.72;6172771;23;20118;-70
2023/07/28 06:45:45;;;;;;;5.40;5.10;;;;;;;18.36;100.00;100382.44;6177360;23;20021;-70
2023/07/28 06:48:11;;;;;;;6.07;5.68;;;;;;;18.45;100.00;100378.13;6146223;23;20516;-71
2023/07/28 06:50:38;;;;;;;6.20;5.80;;;;;;;18.45;100.00;100378.13;6171696;23;20019;-71
2023/07/28 06:53:04;;;;;;;6.10;5.72;;;;;;;17.77;100.00;100248.72;6148967;23;20020;-71
2023/07/28 06:55:31;;;;;;;6.53;5.93;;;;;;;17.63;100.00;100233.22;6172092;23;20020;-72
2023/07/28 06:57:57;;;;;;;6.22;5.82;;;;;;;18.05;100.00;100307.34;6146625;23;20059;-71
2023/07/28 07:00:24;;;;;;;5.90;5.57;;;;;;;18.51;100.00;100377.56;6176110;23;20413;-71
2023/07/28 07:02:50;;;;;;;6.07;5.68;;;;;;;18.45;100.00;100357.72;6146613;23;20036;-71
2023/07/28 07:05:16;;;;;;;5.80;5.50;;;;;;;18.53;100.00;100373.78;6176436;23;20037;-71
2023/07/28 07:07:43;;;;;;;5.78;5.47;;;;;;;18.42;100.00;100352.69;6169426;23;20021;-71
2023/07/28 07:10:10;;;;;;;6.00;5.60;;;;;;;18.68;100.00;100382.19;6174129;23;20004;-71
2023/07/28 07:12:37;;;;;;;6.32;5.93;;;;;;;18.62;100.00;100380.09;6144136;23;20087;-70
2023/07/28 07:15:04;;;;;;;7.05;5.57;;;;;;;18.51;100.00;100349.16;6173681;23;20088;-72
2023/07/28 07:17:31;;;;;;;6.20;5.80;;;;;;;18.78;100.00;100384.00;6155215;23;20123;-70
2023/07/28 07:19:57;;;;;;;6.40;6.00;;;;;;;18.67;100.00;100363.72;6164213;23;20043;-70
2023/07/28 07:22:24;;;;;;;6.05;5.70;;;;;;;18.81;100.00;100381.09;6146218;23;20091;-71
2023/07/28 07:24:50;;;;;;;5.93;5.63;;;;;;;18.76;100.00;100365.53;6173652;23;20023;-71
2023/07/28 07:27:16;;;;;;;5.95;5.55;;;;;;;18.90;100.00;100375.78;6150247;23;20043;-71
2023/07/28 07:29:43;;;;;;;6.00;5.65;;;;;;;18.68;100.00;100309.56;6168842;23;20041;-70
2023/07/28 07:32:11;;;;;;;6.40;5.90;;;;;;;18.63;100.00;100312.66;6155967;23;20164;-70
2023/07/28 07:34:38;;;;;;;6.50;5.90;;;;;;;19.02;100.00;100371.13;6168584;23;20122;-70
2023/07/28 07:37:04;;;;;;;6.10;5.55;;;;;;;19.00;100.00;100357.13;6157129;23;20024;-69
2023/07/28 07:39:31;;;;;;;6.15;5.80;;;;;;;19.09;100.00;100363.41;6171027;23;20020;-71
2023/07/28 07:41:58;;;;;;;6.38;5.88;;;;;;;18.78;100.00;100288.28;6173506;23;20023;-70
2023/07/28 07:44:24;;;;;;;6.32;5.80;;;;;;;19.34;100.00;100364.59;6172091;23;20023;-70
2023/07/28 07:46:50;;;;;;;6.03;5.65;;;;;;;19.10;100.00;100317.22;6145756;23;20027;-71
2023/07/28 07:49:17;;;;;;;5.72;5.43;;;;;;;18.98;100.00;100316.53;6170315;23;20041;-71
2023/07/28 07:51:44;;;;;;;5.85;5.55;;;;;;;19.25;100.00;100349.53;6139032;23;20467;-71
2023/07/28 07:54:15;;;;;;;6.20;5.80;;;;;;;19.02;100.00;100314.44;6169789;23;20041;-71
2023/07/28 07:56:42;;;;;;;6.30;5.90;;;;;;;19.14;100.00;100347.84;6142721;23;20045;-72
2023/07/28 07:59:08;;;;;;;6.32;5.70;;;;;;;18.77;100.00;100292.78;6170682;23;20036;-71
2023/07/28 08:01:35;;;;;;;6.30;5.88;;;;;;;19.17;100.00;100357.38;6139941;23;20025;-72
2023/07/28 08:04:02;;;;;;;6.68;6.07;;;;;;;19.23;100.00;100349.66;6170908;23;20028;-71
2023/07/28 08:06:31;;;;;;;6.25;5.88;;;;;;;18.57;100.00;100238.81;6146117;23;20094;-71
2023/07/28 08:08:59;;;;;;;5.95;5.65;;;;;;;19.36;100.00;100354.66;6172778;23;20020;-70
2023/07/28 08:11:26;;;;;;;6.53;5.93;;;;;;;19.36;100.00;100351.16;6152439;23;20040;-70
2023/07/28 08:13:52;;;;;;;6.30;5.90;;;;;;;19.37;100.00;100353.69;6169328;23;20063;-71
2023/07/28 08:16:19;;;;;;;6.70;6.20;;;;;;;19.06;100.00;100300.72;6145114;23;20084;-69
2023/07/28 08:18:46;;;;;;;7.43;6.13;;;;;;;19.37;100.00;100335.06;6174737;23;20118;-70
2023/07/28 08:21:13;;;;;;;5.85;5.55;;;;;;;19.25;100.00;100306.94;6141455;23;20082;-71
2023/07/28 08:23:39;;;;;;;6.78;6.28;;;;;;;19.44;100.00;100333.47;6168076;23;20087;-71
2023/07/28 08:26:08;;;;;;;6.32;5.93;;;;;;;19.21;100.00;100281.63;6148306;23;20041;-77
2023/07/28 08:28:34;;;;;;;6.38;5.97;;;;;;;19.76;100.00;100350.03;6174374;23;20084;-72
2023/07/28 08:31:01;;;;;;;6.60;6.20;;;;;;;19.71;100.00;100313.22;6176169;23;20092;-73
2023/07/28 08:33:27;;;;;;;6.82;6.32;;;;;;;19.98;100.00;100341.63;6141211;23;20093;-71
2023/07/28 08:35:54;;;;;;;6.40;5.95;;;;;;;20.01;100.00;100329.84;6175158;23;20080;-72
2023/07/28 08:38:20;;;;;;;6.60;6.20;;;;;;;20.39;100.00;100319.91;6145440;23;20096;-72
2023/07/28 08:40:47;;;;;;;6.85;6.25;;;;;;;20.54;100.00;100273.03;6169937;23;20078;-72
2023/07/28 08:43:13;;;;;;;6.53;6.13;;;;;;;21.24;100.00;100302.34;6143922;23;20044;-72
2023/07/28 08:45:40;;;;;;;6.20;5.85;;;;;;;21.51;100.00;100260.47;6166278;23;20013;-72
2023/07/28 08:48:06;;;;;;;5.95;5.65;;;;;;;21.55;100.00;100247.59;6152640;23;20028;-73
2023/07/28 08:50:33;;;;;;;6.40;5.80;;;;;;;21.39;100.00;100186.94;6171775;23;20566;-73
2023/07/28 08:53:00;;;;;;;6.03;5.63;;;;;;;21.37;100.00;100173.78;6171207;23;20090;-72
2023/07/28 08:55:27;;;;;;;6.30;5.95;;;;;;;21.79;100.00;100204.94;6170511;23;20016;-72
2023/07/28 08:57:53;;;;;;;6.50;6.10;;;;;;;21.78;100.00;100195.25;6151902;23;20552;-71
2023/07/28 09:00:20;;;;;;;6.30;5.90;;;;;;;21.63;100.00;100148.81;6147210;23;20001;-72
2023/07/28 09:02:49;;;;;;;6.60;6.20;;;;;;;22.01;100.00;100187.41;6167723;23;20078;-72
2023/07/28 09:05:19;;;;;;;6.20;5.90;;;;;;;22.60;100.00;100207.78;6163633;23;20028;-72
2023/07/28 09:07:47;;;;;;;6.25;5.90;;;;;;;22.85;100.00;100144.31;6140118;23;20074;-72
2023/07/28 09:10:13;;;;;;;5.90;5.60;;;;;;;23.13;100.00;100122.47;6165368;23;20023;-71
2023/07/28 09:12:48;;;;;;;6.13;5.82;;;;;;;23.19;98.88;100093.16;6174210;23;20028;-71
2023/07/28 09:15:16;;;;;;;5.93;5.63;;;;;;;22.88;100.00;100040.47;6142076;23;20092;-72
2023/07/28 09:17:44;;;;;;;6.43;6.13;;;;;;;23.05;100.00;100081.38;6170332;23;20087;-73
2023/07/28 09:20:15;;;;;;;6.53;5.97;;;;;;;23.00;95.52;100010.63;6139881;23;20031;-72
2023/07/28 09:22:43;;;;;;;6.00;5.70;;;;;;;23.31;96.58;100072.16;6172179;23;20521;-72
2023/07/28 09:25:14;;;;;;;6.50;5.90;;;;;;;22.69;94.78;100046.25;6169754;23;20099;-73
2023/07/28 09:27:48;;;;;;;6.28;5.78;;;;;;;22.64;98.74;100076.19;6164703;23;20025;-73
2023/07/28 09:30:16;;;;;;;6.32;5.78;;;;;;;22.34;99.29;100042.22;6172830;23;20020;-71
2023/07/28 09:32:48;;;;;;;5.78;5.47;;;;;;;22.82;100.00;100097.34;6143672;23;20033;-72
2023/07/28 09:35:15;;;;;;;6.10;5.80;;;;;;;22.77;96.95;100056.06;6171046;23;20068;-72
2023/07/28 09:37:44;;;;;;;5.90;5.60;;;;;;;23.05;93.75;100030.53;6168904;23;20024;-72
2023/07/28 09:40:14;;;;;;;5.90;5.60;;;;;;;23.08;92.91;99995.38;6172440;23;20526;-72
2023/07/28 09:42:42;;;;;;;5.95;5.55;;;;;;;23.16;81.57;99924.88;6137836;23;20640;-72
2023/07/28 09:45:12;;;;;;;6.25;5.90;;;;;;;23.14;79.03;99918.88;6172398;23;20072;-72
2023/07/28 09:47:57;;;;;;;6.10;5.80;;;;;;;23.47;76.54;99970.28;6137190;23;20084;-74
2023/07/28 09:50:27;;;;;;;6.57;6.00;;;;;;;23.61;89.10;99976.66;6166598;23;21678;-72
2023/07/28 09:52:58;;;;;;;6.25;5.95;;;;;;;24.23;88.19;99993.44;6157818;23;20090;-71
2023/07/28 09:55:24;;;;;;;6.18;5.88;;;;;;;24.15;85.69;99954.16;6165216;23;20790;-71
2023/07/28 09:57:54;;;;;;;6.30;6.00;;;;;;;24.21;85.96;99939.16;6139457;23;20032;-72
2023/07/28 10:00:22;;;;;;;6.35;6.00;;;;;;;24.60;84.98;99960.28;6173173;23;20031;-72
2023/07/28 10:02:50;;;;;;;6.25;5.95;;;;;;;24.24;84.19;99907.44;6138436;23;20611;-72
2023/07/28 10:05:16;;;;;;;5.90;5.60;;;;;;;24.02;83.46;99916.47;6170238;23;20017;-71
2023/07/28 10:07:45;;;;;;;6.10;5.70;;;;;;;23.65;87.94;99955.69;6136856;23;20028;-71
2023/07/28 10:10:14;;;;;;;5.85;5.55;;;;;;;23.73;89.60;100003.00;6170191;23;20041;-72
2023/07/28 10:12:51;;;;;;;6.07;5.78;;;;;;;23.44;89.16;99959.09;6139382;23;20033;-72
2023/07/28 10:15:19;;;;;;;6.18;5.88;;;;;;;23.48;90.53;100014.78;6165610;23;20064;-72
2023/07/28 10:17:49;;;;;;;6.13;5.82;;;;;;;23.26;88.71;99957.56;6145138;23;20044;-71
2023/07/28 10:20:39;;;;;;;5.90;5.60;;;;;;;23.28;91.44;100019.81;6172218;23;20024;-73
2023/07/28 10:23:16;;;;;;;5.80;5.50;;;;;;;22.91;90.24;99953.63;6164788;23;20085;-74
2023/07/28 10:25:44;;;;;;;5.70;5.40;;;;;;;23.14;91.75;100044.69;6141643;23;20045;-74
2023/07/28 10:28:38;;;;;;;6.00;5.70;;;;;;;23.17;88.04;100027.41;6168597;23;20619;-72
2023/07/28 10:31:06;;;;;;;6.30;6.00;;;;;;;23.26;91.67;100031.72;6168373;23;20082;-71
2023/07/28 10:33:38;;;;;;;6.15;5.75;;;;;;;23.07;89.72;99999.06;6173572;23;20032;-72
2023/07/28 10:36:23;;;;;;;6.05;5.55;;;;;;;22.76;90.61;100003.59;6144286;23;20028;-72
2023/07/28 10:39:04;;;;;;;6.03;5.73;;;;;;;23.14;94.29;100073.28;6192864;23;20040;-73
2023/07/28 10:41:36;;;;;;;6.07;5.78;;;;;;;23.19;91.47;100028.06;6174144;23;20438;-72
2023/07/28 10:44:03;;;;;;;5.93;5.63;;;;;;;23.64;87.29;99981.66;6170453;23;20020;-71
2023/07/28 10:46:30;;;;;;;5.85;5.55;;;;;;;24.44;85.93;99981.94;6153201;23;20049;-71
2023/07/28 10:49:04;;;;;;;6.60;6.20;;;;;;;25.15;80.09;99943.69;6173186;23;20087;-72
2023/07/28 10:51:33;;;;;;;6.05;5.65;;;;;;;25.45;79.48;99931.75;6168365;23;20088;-72
2023/07/28 10:54:02;;;;;;;6.65;6.05;;;;;;;25.32;76.54;99845.72;6175105;23;20097;-72
2023/07/28 10:56:29;;;;;;;6.40;6.00;;;;;;;25.50;66.69;99853.25;6170717;23;20401;-71
2023/07/28 10:59:00;;;;;;;6.20;5.90;;;;;;;25.18;74.97;99809.88;6172110;23;20576;-72
2023/07/28 11:01:37;;;;;;;6.03;5.70;;;;;;;24.73;76.09;99854.94;6151118;23;20050;-72
2023/07/28 11:04:11;;;;;;;6.10;5.80;;;;;;;24.38;77.72;99878.94;6176794;23;20301;-72
2023/07/28 11:06:40;;;;;;;5.95;5.65;;;;;;;23.71;83.83;99954.97;6169570;23;20466;-72
2023/07/28 11:09:08;;;;;;;5.90;5.60;;;;;;;23.44;90.04;100008.13;6144202;23;20023;-71
2023/07/28 11:11:36;;;;;;;5.97;5.68;;;;;;;23.11;93.58;100034.31;6173854;23;20017;-71
2023/07/28 11:14:07;;;;;;;6.30;6.00;;;;;;;22.94;99.76;100129.91;6168312;23;20699;-72
2023/07/28 11:16:35;;;;;;;6.53;5.93;;;;;;;23.08;100.00;100161.31;6144396;23;20543;-72
2023/07/28 11:19:06;;;;;;;6.43;5.97;;;;;;;23.21;100.00;100194.69;6168066;23;20092;-72
2023/07/28 11:21:40;;;;;;;6.40;6.00;;;;;;;22.74;100.00;100088.53;6143648;23;20081;-71